Terminal Aerodrome Forecast
Issued by NWS

Home | Current Version | Previous Version | Text Only | Print | Product List | Glossary On
Versions: 1 2 3 4 5 6 7 8 9 10 11 12 13 14 15 16 17 18 19
000
FTUS43 KILX 272300
TAFCMI
TAF
KCMI 272332Z 2800/2824 29010KT P6SM VCSH OVC020
     FM280200 30007KT P6SM SCT025
     FM280600 VRB05KT P6SM BKN070
     FM281300 17015G20KT P6SM BKN080
     FM281700 18016G24KT P6SM SCT080 BKN150=

USA.gov is the U.S. government's official web portal to all federal, state and local government web resources and services.